Wetterdaten: Woche 03.03.14 - 09.03.14 (KW10)
Datum Zeit Temp. A. Feuchte A. Luftdruck Regen Wind Richtung Taupunkt Windchill Windben
03.03.2014 00:00 5,0 C 77 % 1001,1 hPa 0,0 l/m 0,0 km/h N 1,3 C 5,0 C 1,2 km/h
03.03.2014 01:00 3,4 C 79 % 1000,7 hPa 0,0 l/m 0,0 km/h N 0,2 C 3,4 C 0,4 km/h
03.03.2014 02:00 2,6 C 83 % 1000,0 hPa 0,0 l/m 0,0 km/h N -0,0 C 2,6 C 0,0 km/h
03.03.2014 03:00 2,2 C 84 % 999,9 hPa 0,0 l/m 0,2 km/h N -0,2 C 2,2 C 2,8 km/h
03.03.2014 04:00 1,4 C 85 % 999,6 hPa 0,0 l/m 0,0 km/h N -1,0 C 1,4 C 0,0 km/h
03.03.2014 05:00 0,6 C 85 % 999,4 hPa 0,0 l/m 0,0 km/h N -1,6 C 0,6 C 0,0 km/h
03.03.2014 06:00 0,0 C 85 % 999,2 hPa 0,0 l/m 0,0 km/h N -2,2 C 0,0 C 0,0 km/h
03.03.2014 07:00 -0,2 C 85 % 999,1 hPa 0,0 l/m 0,0 km/h N -2,4 C -0,2 C 0,0 km/h
03.03.2014 08:00 1,1 C 84 % 999,0 hPa 0,0 l/m 0,0 km/h N -1,4 C 1,1 C 0,0 km/h
03.03.2014 09:00 3,8 C 82 % 998,4 hPa 0,0 l/m 0,1 km/h N 0,9 C 3,8 C 2,4 km/h
03.03.2014 10:00 5,5 C 84 % 998,1 hPa 0,0 l/m 0,4 km/h N 3,0 C 5,5 C 5,2 km/h
03.03.2014 11:00 8,4 C 77 % 997,7 hPa 0,0 l/m 4,1 km/h N 4,6 C 8,2 C 19,3 km/h
03.03.2014 12:00 9,7 C 71 % 997,6 hPa 0,0 l/m 6,9 km/h N 4,7 C 9,0 C 21,7 km/h
03.03.2014 13:00 9,3 C 74 % 997,5 hPa 0,0 l/m 6,1 km/h N 4,8 C 9,3 C 20,5 km/h
03.03.2014 14:00 8,9 C 75 % 997,4 hPa 0,0 l/m 7,2 km/h N 4,8 C 8,3 C 20,9 km/h
03.03.2014 15:00 8,4 C 79 % 997,6 hPa 0,0 l/m 7,7 km/h N 5,0 C 7,5 C 22,1 km/h
03.03.2014 16:00 7,4 C 84 % 997,8 hPa 0,0 l/m 6,8 km/h N 4,8 C 7,1 C 18,1 km/h
03.03.2014 17:00 6,9 C 85 % 998,0 hPa 0,0 l/m 4,6 km/h N 4,6 C 6,9 C 15,3 km/h
03.03.2014 18:00 6,6 C 85 % 998,1 hPa 0,0 l/m 2,5 km/h N 4,2 C 6,6 C 11,3 km/h
03.03.2014 19:00 6,4 C 84 % 998,4 hPa 0,0 l/m 4,2 km/h N 3,8 C 6,3 C 14,1 km/h
03.03.2014 20:00 6,1 C 83 % 998,6 hPa 0,0 l/m 3,5 km/h N 3,5 C 6,1 C 11,3 km/h
03.03.2014 21:00 5,9 C 82 % 998,7 hPa 0,3 l/m 2,0 km/h N 3,2 C 5,9 C 9,3 km/h
03.03.2014 22:00 5,8 C 82 % 998,8 hPa 0,0 l/m 1,3 km/h N 2,9 C 5,8 C 8,0 km/h
03.03.2014 23:00 5,7 C 81 % 998,6 hPa 0,0 l/m 1,7 km/h N 2,7 C 5,7 C 7,6 km/h
04.03.2014 00:00 5,7 C 81 % 998,6 hPa 0,0 l/m 1,0 km/h N 2,7 C 5,7 C 7,2 km/h
04.03.2014 01:00 5,7 C 82 % 998,5 hPa 0,0 l/m 1,1 km/h N 2,8 C 5,7 C 6,4 km/h
04.03.2014 02:00 5,6 C 82 % 998,3 hPa 0,0 l/m 0,9 km/h N 2,8 C 5,6 C 5,6 km/h
04.03.2014 03:00 5,5 C 83 % 998,5 hPa 0,0 l/m 2,3 km/h N 2,8 C 5,5 C 8,1 km/h
04.03.2014 04:00 5,4 C 84 % 998,8 hPa 0,0 l/m 0,0 km/h N 2,9 C 5,4 C 2,4 km/h
04.03.2014 05:00 5,3 C 83 % 999,2 hPa 0,3 l/m 0,0 km/h N 2,6 C 5,3 C 1,6 km/h
04.03.2014 06:00 5,1 C 83 % 999,5 hPa 0,8 l/m 0,0 km/h N 2,5 C 5,1 C 0,4 km/h
04.03.2014 07:00 5,1 C 83 % 999,8 hPa 0,3 l/m 0,0 km/h N 2,3 C 5,1 C 0,4 km/h
04.03.2014 08:00 5,5 C 82 % 1000,3 hPa 0,5 l/m 0,1 km/h N 2,6 C 5,5 C 2,0 km/h
04.03.2014 09:00 6,1 C 81 % 1000,7 hPa 0,0 l/m 0,2 km/h N 3,0 C 6,1 C 2,8 km/h
04.03.2014 10:00 6,2 C 81 % 1001,3 hPa 0,0 l/m 0,4 km/h N 3,1 C 6,2 C 4,0 km/h
04.03.2014 11:00 6,6 C 80 % 1001,9 hPa 0,3 l/m 0,3 km/h N 3,4 C 6,6 C 3,2 km/h
04.03.2014 12:00 7,7 C 82 % 1002,1 hPa 0,0 l/m 2,0 km/h N 4,7 C 7,7 C 8,4 km/h
04.03.2014 13:00 9,0 C 80 % 1002,0 hPa 0,0 l/m 3,8 km/h N 5,7 C 9,0 C 10,1 km/h
04.03.2014 14:00 9,6 C 74 % 1002,1 hPa 0,0 l/m 3,1 km/h N 5,1 C 9,6 C 9,7 km/h
04.03.2014 15:00 10,5 C 71 % 1002,2 hPa 0,0 l/m 0,9 km/h N 5,4 C 10,5 C 4,8 km/h
04.03.2014 16:00 10,1 C 71 % 1002,6 hPa 0,0 l/m 0,2 km/h N 5,0 C 10,1 C 4,0 km/h
04.03.2014 17:00 9,1 C 70 % 1003,2 hPa 0,0 l/m 0,1 km/h N 4,0 C 9,1 C 0,8 km/h
04.03.2014 18:00 7,0 C 76 % 1004,2 hPa 0,0 l/m 0,0 km/h N 3,0 C 7,0 C 0,8 km/h
04.03.2014 19:00 6,2 C 82 % 1005,2 hPa 0,0 l/m 0,4 km/h N 3,4 C 6,2 C 3,2 km/h
04.03.2014 20:00 5,9 C 84 % 1005,7 hPa 0,0 l/m 0,4 km/h N 3,4 C 5,9 C 2,8 km/h
04.03.2014 21:00 5,8 C 85 % 1006,0 hPa 0,0 l/m 0,3 km/h N 3,4 C 5,8 C 2,4 km/h
04.03.2014 22:00 6,1 C 85 % 1006,3 hPa 0,0 l/m 0,5 km/h N 3,7 C 6,1 C 3,6 km/h
04.03.2014 23:00 6,3 C 84 % 1006,8 hPa 0,0 l/m 0,1 km/h N 3,8 C 6,3 C 1,2 km/h
05.03.2014 00:00 6,1 C 84 % 1007,5 hPa 0,0 l/m 0,0 km/h N 3,6 C 6,1 C 0,0 km/h
05.03.2014 01:00 5,8 C 85 % 1007,9 hPa 0,0 l/m 0,3 km/h N 3,3 C 5,8 C 2,4 km/h
05.03.2014 02:00 6,5 C 84 % 1007,8 hPa 0,0 l/m 3,3 km/h N 4,0 C 6,5 C 10,1 km/h
05.03.2014 03:00 6,0 C 83 % 1008,3 hPa 0,0 l/m 3,6 km/h N 3,4 C 6,0 C 12,1 km/h
05.03.2014 04:00 5,1 C 84 % 1009,0 hPa 0,0 l/m 4,5 km/h N 2,6 C 5,1 C 12,1 km/h
05.03.2014 05:00 4,9 C 84 % 1009,6 hPa 0,0 l/m 5,6 km/h N 2,4 C 4,9 C 14,9 km/h
05.03.2014 06:00 4,8 C 84 % 1010,3 hPa 0,0 l/m 6,2 km/h N 2,4 C 4,3 C 16,5 km/h
05.03.2014 07:00 4,9 C 84 % 1011,3 hPa 0,0 l/m 5,1 km/h N 2,4 C 4,9 C 13,3 km/h
05.03.2014 08:00 5,5 C 83 % 1012,0 hPa 0,0 l/m 4,8 km/h N 2,9 C 5,5 C 14,1 km/h
05.03.2014 09:00 6,6 C 81 % 1012,7 hPa 0,0 l/m 5,0 km/h N 3,5 C 6,5 C 14,9 km/h
05.03.2014 10:00 8,3 C 76 % 1012,8 hPa 0,0 l/m 6,5 km/h N 4,3 C 7,3 C 16,1 km/h
05.03.2014 11:00 9,9 C 71 % 1012,8 hPa 0,0 l/m 9,8 km/h N 4,8 C 7,7 C 22,5 km/h
05.03.2014 12:00 10,4 C 68 % 1012,7 hPa 0,0 l/m 9,9 km/h N 4,6 C 8,1 C 22,9 km/h
05.03.2014 13:00 11,7 C 65 % 1012,7 hPa 0,0 l/m 12,1 km/h N 5,3 C 8,4 C 26,6 km/h
05.03.2014 14:00 12,1 C 60 % 1012,6 hPa 0,0 l/m 13,0 km/h N 4,5 C 8,5 C 29,0 km/h
05.03.2014 15:00 12,6 C 58 % 1012,8 hPa 0,0 l/m 10,8 km/h N 4,5 C 10,0 C 25,3 km/h
05.03.2014 16:00 12,3 C 59 % 1013,3 hPa 0,0 l/m 9,5 km/h N 4,5 C 10,4 C 22,5 km/h
05.03.2014 17:00 11,5 C 60 % 1014,1 hPa 0,0 l/m 7,7 km/h N 4,1 C 10,7 C 20,5 km/h
05.03.2014 18:00 10,5 C 63 % 1015,2 hPa 0,0 l/m 6,0 km/h N 3,8 C 10,3 C 16,9 km/h
05.03.2014 19:00 10,0 C 67 % 1016,4 hPa 0,0 l/m 5,7 km/h N 4,1 C 10,0 C 17,7 km/h
05.03.2014 20:00 9,1 C 66 % 1017,4 hPa 0,0 l/m 6,0 km/h N 3,0 C 9,0 C 18,5 km/h
05.03.2014 21:00 8,4 C 67 % 1018,2 hPa 0,0 l/m 5,5 km/h N 2,6 C 8,4 C 17,3 km/h
05.03.2014 22:00 7,5 C 67 % 1018,8 hPa 0,0 l/m 6,2 km/h N 1,7 C 7,4 C 20,5 km/h
05.03.2014 23:00 7,2 C 69 % 1019,1 hPa 0,0 l/m 5,5 km/h N 1,8 C 7,2 C 15,3 km/h
06.03.2014 00:00 6,8 C 71 % 1019,8 hPa 0,0 l/m 5,4 km/h N 1,9 C 6,8 C 16,5 km/h
06.03.2014 01:00 7,0 C 72 % 1020,3 hPa 0,0 l/m 7,6 km/h N 2,3 C 6,0 C 20,1 km/h
06.03.2014 02:00 7,2 C 72 % 1020,4 hPa 0,0 l/m 8,8 km/h N 2,5 C 5,4 C 23,7 km/h
06.03.2014 03:00 7,4 C 71 % 1020,6 hPa 0,0 l/m 10,9 km/h N 2,4 C 4,1 C 27,4 km/h
06.03.2014 04:00 7,3 C 72 % 1021,0 hPa 0,0 l/m 11,0 km/h N 2,4 C 4,0 C 25,8 km/h
06.03.2014 05:00 7,3 C 71 % 1021,8 hPa 0,0 l/m 12,8 km/h N 2,4 C 3,0 C 27,4 km/h
06.03.2014 06:00 7,3 C 72 % 1022,2 hPa 0,0 l/m 12,1 km/h N 2,5 C 3,3 C 32,6 km/h
06.03.2014 07:00 7,0 C 75 % 1023,2 hPa 0,0 l/m 12,5 km/h N 2,9 C 2,8 C 28,2 km/h
06.03.2014 08:00 6,9 C 78 % 1024,0 hPa 0,3 l/m 13,0 km/h N 3,2 C 2,3 C 29,8 km/h
06.03.2014 09:00 6,8 C 78 % 1024,8 hPa 0,0 l/m 11,6 km/h N 3,2 C 3,1 C 28,2 km/h
06.03.2014 10:00 7,1 C 75 % 1025,5 hPa 0,0 l/m 12,4 km/h N 3,0 C 3,0 C 29,0 km/h
06.03.2014 11:00 7,3 C 76 % 1025,9 hPa 0,0 l/m 11,5 km/h N 3,3 C 3,7 C 25,7 km/h
06.03.2014 12:00 7,5 C 74 % 1026,0 hPa 0,0 l/m 11,9 km/h N 3,2 C 3,8 C 30,2 km/h
06.03.2014 13:00 8,0 C 73 % 1025,9 hPa 0,0 l/m 11,1 km/h N 3,4 C 4,7 C 27,4 km/h
06.03.2014 14:00 8,1 C 73 % 1025,9 hPa 0,0 l/m 11,8 km/h N 3,5 C 4,4 C 26,1 km/h
06.03.2014 15:00 8,3 C 72 % 1025,8 hPa 0,0 l/m 9,9 km/h N 3,6 C 5,8 C 23,7 km/h
06.03.2014 16:00 8,4 C 71 % 1025,8 hPa 0,0 l/m 9,5 km/h N 3,5 C 6,2 C 20,1 km/h
06.03.2014 17:00 8,4 C 70 % 1026,2 hPa 0,0 l/m 8,9 km/h N 3,2 C 6,7 C 22,5 km/h
06.03.2014 18:00 8,4 C 69 % 1026,7 hPa 0,0 l/m 7,6 km/h N 3,1 C 7,5 C 20,9 km/h
06.03.2014 19:00 8,3 C 70 % 1027,1 hPa 0,0 l/m 6,9 km/h N 3,2 C 7,8 C 16,9 km/h
06.03.2014 20:00 8,1 C 70 % 1027,6 hPa 0,0 l/m 6,4 km/h N 3,0 C 7,8 C 18,1 km/h
06.03.2014 21:00 7,8 C 70 % 1028,0 hPa 0,0 l/m 3,8 km/h N 2,7 C 7,8 C 13,3 km/h
06.03.2014 22:00 7,4 C 69 % 1028,2 hPa 0,0 l/m 4,4 km/h N 2,0 C 7,4 C 15,3 km/h
06.03.2014 23:00 7,0 C 72 % 1028,2 hPa 0,0 l/m 5,8 km/h N 2,3 C 6,8 C 17,3 km/h
07.03.2014 00:00 6,4 C 72 % 1028,1 hPa 0,0 l/m 6,8 km/h N 1,8 C 6,0 C 17,3 km/h
07.03.2014 01:00 5,3 C 74 % 1028,0 hPa 0,0 l/m 5,8 km/h N 1,1 C 5,3 C 15,3 km/h
07.03.2014 02:00 4,4 C 76 % 1027,7 hPa 0,0 l/m 3,3 km/h N 0,6 C 4,4 C 9,7 km/h
07.03.2014 03:00 4,2 C 78 % 1027,6 hPa 0,0 l/m 2,8 km/h N 0,7 C 4,2 C 9,7 km/h
07.03.2014 04:00 4,6 C 77 % 1027,6 hPa 0,0 l/m 1,7 km/h N 0,9 C 4,6 C 6,4 km/h
07.03.2014 05:00 4,7 C 77 % 1027,2 hPa 0,0 l/m 2,2 km/h N 1,0 C 4,7 C 8,4 km/h
07.03.2014 06:00 4,8 C 76 % 1027,2 hPa 0,0 l/m 3,5 km/h N 0,9 C 4,8 C 11,3 km/h
07.03.2014 07:00 4,9 C 74 % 1027,4 hPa 0,0 l/m 3,2 km/h N 0,7 C 4,9 C 12,5 km/h
07.03.2014 08:00 5,2 C 73 % 1027,6 hPa 0,0 l/m 3,7 km/h N 0,8 C 5,2 C 12,5 km/h
07.03.2014 09:00 5,3 C 72 % 1027,4 hPa 0,0 l/m 4,9 km/h N 0,6 C 5,3 C 14,9 km/h
07.03.2014 10:00 5,7 C 70 % 1027,2 hPa 0,0 l/m 6,0 km/h N 0,6 C 5,4 C 17,7 km/h
07.03.2014 11:00 6,2 C 68 % 1026,9 hPa 0,0 l/m 9,0 km/h N 0,6 C 4,1 C 22,9 km/h
07.03.2014 12:00 6,9 C 66 % 1026,4 hPa 0,0 l/m 8,0 km/h N 1,0 C 5,7 C 20,5 km/h
07.03.2014 13:00 7,5 C 65 % 1026,1 hPa 0,0 l/m 8,1 km/h N 1,3 C 6,1 C 19,7 km/h
07.03.2014 14:00 7,9 C 63 % 1026,1 hPa 0,0 l/m 6,6 km/h N 1,3 C 7,5 C 18,1 km/h
07.03.2014 15:00 7,2 C 64 % 1026,1 hPa 0,0 l/m 4,9 km/h N 0,8 C 7,2 C 14,5 km/h
07.03.2014 16:00 6,9 C 65 % 1025,8 hPa 0,0 l/m 4,0 km/h N 0,7 C 6,9 C 12,5 km/h
07.03.2014 17:00 6,8 C 65 % 1025,9 hPa 0,0 l/m 2,3 km/h N 0,6 C 6,8 C 8,0 km/h
07.03.2014 18:00 6,2 C 67 % 1026,1 hPa 0,0 l/m 0,7 km/h N 0,4 C 6,2 C 4,0 km/h
07.03.2014 19:00 5,6 C 69 % 1026,3 hPa 0,0 l/m 0,8 km/h N 0,4 C 5,6 C 4,4 km/h
07.03.2014 20:00 5,3 C 69 % 1026,6 hPa 0,0 l/m 0,3 km/h N 0,2 C 5,3 C 2,0 km/h
07.03.2014 21:00 4,9 C 72 % 1026,9 hPa 0,0 l/m 0,5 km/h N 0,3 C 4,9 C 4,8 km/h
07.03.2014 22:00 4,2 C 72 % 1027,1 hPa 0,0 l/m 0,1 km/h N -0,4 C 4,2 C 1,2 km/h
07.03.2014 23:00 3,3 C 77 % 1027,1 hPa 0,0 l/m 0,7 km/h N -0,3 C 3,3 C 2,0 km/h
08.03.2014 00:00 3,3 C 77 % 1027,0 hPa 0,0 l/m 1,1 km/h N -0,5 C 3,3 C 4,4 km/h
08.03.2014 01:00 1,8 C 78 % 1027,5 hPa 0,0 l/m 0,0 km/h N -1,7 C 1,8 C 0,4 km/h
08.03.2014 02:00 1,1 C 82 % 1028,2 hPa 0,0 l/m 0,6 km/h N -1,7 C 1,1 C 6,0 km/h
08.03.2014 03:00 2,4 C 81 % 1028,4 hPa 0,0 l/m 2,1 km/h N -0,6 C 2,4 C 7,6 km/h
08.03.2014 04:00 2,5 C 78 % 1029,1 hPa 0,0 l/m 0,9 km/h N -0,9 C 2,5 C 5,2 km/h
08.03.2014 05:00 1,5 C 81 % 1030,0 hPa 0,0 l/m 0,3 km/h N -1,5 C 1,5 C 5,6 km/h
08.03.2014 06:00 1,3 C 82 % 1030,5 hPa 0,0 l/m 0,8 km/h N -1,5 C 1,3 C 4,8 km/h
08.03.2014 07:00 3,2 C 79 % 1031,2 hPa 0,0 l/m 2,0 km/h N -0,1 C 3,2 C 8,4 km/h
08.03.2014 08:00 5,3 C 69 % 1031,8 hPa 0,0 l/m 8,8 km/h N 0,0 C 3,2 C 20,9 km/h
08.03.2014 09:00 7,0 C 63 % 1032,4 hPa 0,0 l/m 11,5 km/h N 0,5 C 3,4 C 24,9 km/h
08.03.2014 10:00 8,5 C 60 % 1032,8 hPa 0,0 l/m 10,9 km/h N 1,1 C 5,5 C 23,8 km/h
08.03.2014 11:00 10,0 C 57 % 1032,7 hPa 0,0 l/m 9,9 km/h N 1,9 C 7,7 C 22,5 km/h
08.03.2014 12:00 11,1 C 53 % 1032,4 hPa 0,0 l/m 9,5 km/h N 1,9 C 9,1 C 20,9 km/h
08.03.2014 13:00 12,1 C 50 % 1031,9 hPa 0,0 l/m 10,0 km/h N 1,9 C 9,9 C 23,3 km/h
08.03.2014 14:00 12,7 C 45 % 1031,4 hPa 0,0 l/m 10,5 km/h N 1,1 C 10,3 C 25,3 km/h
08.03.2014 15:00 13,1 C 45 % 1031,0 hPa 0,0 l/m 9,0 km/h N 1,3 C 11,6 C 23,7 km/h
08.03.2014 16:00 12,9 C 44 % 1031,0 hPa 0,0 l/m 7,7 km/h N 0,8 C 12,1 C 19,7 km/h
08.03.2014 17:00 12,2 C 44 % 1031,3 hPa 0,0 l/m 2,8 km/h N 0,2 C 12,2 C 10,4 km/h
08.03.2014 18:00 9,9 C 48 % 1031,9 hPa 0,0 l/m 0,1 km/h N -0,7 C 9,9 C 2,4 km/h
08.03.2014 19:00 7,8 C 58 % 1032,3 hPa 0,0 l/m 1,0 km/h N -0,0 C 7,8 C 6,0 km/h
08.03.2014 20:00 8,5 C 60 % 1032,5 hPa 0,0 l/m 1,2 km/h N 1,2 C 8,5 C 6,0 km/h
08.03.2014 21:00 8,5 C 59 % 1032,8 hPa 0,0 l/m 2,5 km/h N 0,9 C 8,5 C 9,3 km/h
08.03.2014 22:00 7,6 C 61 % 1033,3 hPa 0,0 l/m 1,7 km/h N 0,6 C 7,6 C 8,0 km/h
08.03.2014 23:00 6,9 C 63 % 1033,7 hPa 0,0 l/m 1,7 km/h N 0,2 C 6,9 C 11,3 km/h
09.03.2014 00:00 6,8 C 63 % 1033,6 hPa 0,0 l/m 5,4 km/h N 0,4 C 6,8 C 15,7 km/h
09.03.2014 01:00 6,7 C 65 % 1033,4 hPa 0,0 l/m 4,9 km/h N 0,6 C 6,7 C 13,7 km/h
09.03.2014 02:00 6,2 C 68 % 1033,1 hPa 0,0 l/m 5,1 km/h N 0,6 C 6,2 C 15,3 km/h
09.03.2014 03:00 6,0 C 68 % 1032,7 hPa 0,0 l/m 5,1 km/h N 0,6 C 6,0 C 12,9 km/h
09.03.2014 04:00 5,8 C 69 % 1032,7 hPa 0,0 l/m 5,9 km/h N 0,5 C 5,6 C 17,3 km/h
09.03.2014 05:00 5,1 C 71 % 1033,2 hPa 0,0 l/m 2,8 km/h N 0,2 C 5,1 C 10,1 km/h
09.03.2014 06:00 4,3 C 74 % 1033,6 hPa 0,0 l/m 1,7 km/h N 0,0 C 4,3 C 8,0 km/h
09.03.2014 07:00 4,5 C 76 % 1033,8 hPa 0,0 l/m 2,2 km/h N 0,6 C 4,5 C 8,9 km/h
09.03.2014 08:00 6,6 C 70 % 1034,1 hPa 0,0 l/m 4,7 km/h N 1,5 C 6,6 C 14,1 km/h
09.03.2014 09:00 7,8 C 65 % 1034,1 hPa 0,0 l/m 5,4 km/h N 1,6 C 7,8 C 15,3 km/h
09.03.2014 10:00 8,8 C 63 % 1033,9 hPa 0,0 l/m 4,0 km/h N 2,1 C 8,8 C 11,3 km/h
09.03.2014 11:00 10,0 C 59 % 1033,6 hPa 0,0 l/m 4,5 km/h N 2,4 C 10,0 C 12,9 km/h
09.03.2014 12:00 10,9 C 56 % 1033,1 hPa 0,0 l/m 5,5 km/h N 2,5 C 10,9 C 16,5 km/h
09.03.2014 13:00 11,5 C 53 % 1032,4 hPa 0,0 l/m 5,2 km/h N 2,3 C 11,5 C 16,5 km/h
09.03.2014 14:00 11,9 C 51 % 1031,9 hPa 0,0 l/m 3,9 km/h N 2,1 C 11,9 C 16,1 km/h
09.03.2014 15:00 12,3 C 50 % 1031,4 hPa 0,0 l/m 2,8 km/h N 2,1 C 12,3 C 11,3 km/h
09.03.2014 16:00 12,2 C 50 % 1031,2 hPa 0,0 l/m 1,8 km/h N 2,1 C 12,2 C 9,3 km/h
09.03.2014 17:00 11,4 C 52 % 1031,3 hPa 0,0 l/m 0,2 km/h N 1,7 C 11,4 C 2,0 km/h
09.03.2014 18:00 8,6 C 58 % 1031,6 hPa 0,0 l/m 0,0 km/h N 0,8 C 8,6 C 1,2 km/h
09.03.2014 19:00 6,1 C 66 % 1031,8 hPa 0,0 l/m 0,0 km/h N 0,1 C 6,1 C 0,8 km/h
09.03.2014 20:00 4,2 C 72 % 1031,7 hPa 0,0 l/m 0,1 km/h N -0,4 C 4,2 C 0,8 km/h
09.03.2014 21:00 3,4 C 77 % 1031,4 hPa 0,0 l/m 0,2 km/h N -0,3 C 3,4 C 2,4 km/h
09.03.2014 22:00 3,8 C 77 % 1031,1 hPa 0,0 l/m 0,6 km/h N 0,0 C 3,8 C 4,0 km/h
09.03.2014 23:00 4,0 C 74 % 1030,8 hPa 0,0 l/m 1,3 km/h N -0,2 C 4,0 C 4,8 km/h
Min-Datum _ 03.03.14 08.03.14 03.03.14 - 03.03.14 - 08.03.14 03.03.14 03.03.14
_ Min-Zeit 07:30 16:30 14:00 - 00:00 - 02:00 06:45 00:00
Minimum _ -0,3 C 43 % 997,4 hPa - 0,0 km/h - -2,6 C -0,2 C 0,0 km/h
Max-Datum _ 08.03.14 03.03.14 09.03.14 04.03.14 06.03.14 - 04.03.14 08.03.14 06.03.14
_ Max-Zeit 15:15 04:30 08:30 06:00 08:15 - 13:00 16:30 06:30
Maximum _ 13,2 C 85 % 1034,2 hPa 0,8 l/m 14,1 km/h
N
- 6,1 C 12,8 C 41,8 km/h
N
Durchschnitt _ 6,8 C 72 % 1018,4 hPa #2,6 l/m 4,3 km/h N 2,0 C 6,2 C 12,4 km/h